sensor_id;sensor_type;location;lat;lon;timestamp;temperature;humidity
17956;DHT22;27666;51.498;11.966;2023-02-01T00:02:27;4.40;99.90
17956;DHT22;27666;51.498;11.966;2023-02-01T00:05:14;4.40;99.90
17956;DHT22;27666;51.498;11.966;2023-02-01T00:08:02;4.40;99.90
17956;DHT22;27666;51.498;11.966;2023-02-01T00:10:48;4.40;99.90
17956;DHT22;27666;51.498;11.966;2023-02-01T00:13:36;4.30;99.90
17956;DHT22;27666;51.498;11.966;2023-02-01T00:16:26;4.30;99.90
17956;DHT22;27666;51.498;11.966;2023-02-01T00:19:14;4.20;99.90
17956;DHT22;27666;51.498;11.966;2023-02-01T00:22:01;4.20;99.90
17956;DHT22;27666;51.498;11.966;2023-02-01T00:24:49;4.30;99.90
17956;DHT22;27666;51.498;11.966;2023-02-01T00:27:35;4.30;99.90
17956;DHT22;27666;51.498;11.966;2023-02-01T00:30:21;4.20;99.90
17956;DHT22;27666;51.498;11.966;2023-02-01T00:33:08;4.30;99.90
17956;DHT22;27666;51.498;11.966;2023-02-01T00:35:56;4.20;99.90
17956;DHT22;27666;51.498;11.966;2023-02-01T00:38:44;4.20;99.90
17956;DHT22;27666;51.498;11.966;2023-02-01T00:41:32;4.20;99.90
17956;DHT22;27666;51.498;11.966;2023-02-01T00:44:19;4.30;99.90
17956;DHT22;27666;51.498;11.966;2023-02-01T00:47:06;4.30;99.90
17956;DHT22;27666;51.498;11.966;2023-02-01T00:49:52;4.50;99.90
17956;DHT22;27666;51.498;11.966;2023-02-01T00:52:38;4.40;99.90
17956;DHT22;27666;51.498;11.966;2023-02-01T00:55:25;4.40;99.90
17956;DHT22;27666;51.498;11.966;2023-02-01T00:58:13;4.40;99.90
17956;DHT22;27666;51.498;11.966;2023-02-01T01:01:04;4.40;99.90
17956;DHT22;27666;51.498;11.966;2023-02-01T01:03:53;4.40;99.90
17956;DHT22;27666;51.498;11.966;2023-02-01T01:06:40;4.40;99.90
17956;DHT22;27666;51.498;11.966;2023-02-01T01:09:26;4.40;99.90
17956;DHT22;27666;51.498;11.966;2023-02-01T01:12:13;4.50;99.90
17956;DHT22;27666;51.498;11.966;2023-02-01T01:15:00;4.50;99.90
17956;DHT22;27666;51.498;11.966;2023-02-01T01:17:47;4.70;99.90
17956;DHT22;27666;51.498;11.966;2023-02-01T01:20:34;4.60;99.90
17956;DHT22;27666;51.498;11.966;2023-02-01T01:23:21;4.70;99.90
17956;DHT22;27666;51.498;11.966;2023-02-01T01:26:09;4.70;99.90
17956;DHT22;27666;51.498;11.966;2023-02-01T01:28:57;4.60;99.90
17956;DHT22;27666;51.498;11.966;2023-02-01T01:31:45;4.70;99.90
17956;DHT22;27666;51.498;11.966;2023-02-01T01:34:32;4.60;99.90
17956;DHT22;27666;51.498;11.966;2023-02-01T01:37:18;4.60;99.90
17956;DHT22;27666;51.498;11.966;2023-02-01T01:40:06;4.50;99.90
17956;DHT22;27666;51.498;11.966;2023-02-01T01:42:53;4.70;99.90
17956;DHT22;27666;51.498;11.966;2023-02-01T01:45:40;4.60;99.90
17956;DHT22;27666;51.498;11.966;2023-02-01T01:48:29;4.40;99.90
17956;DHT22;27666;51.498;11.966;2023-02-01T01:51:19;4.50;99.90
17956;DHT22;27666;51.498;11.966;2023-02-01T01:54:12;4.50;99.90
17956;DHT22;27666;51.498;11.966;2023-02-01T01:57:04;4.40;99.90
17956;DHT22;27666;51.498;11.966;2023-02-01T02:00:00;4.40;99.90
17956;DHT22;27666;51.498;11.966;2023-02-01T02:02:53;4.50;99.90
17956;DHT22;27666;51.498;11.966;2023-02-01T02:05:42;4.40;99.90
17956;DHT22;27666;51.498;11.966;2023-02-01T02:08:28;4.60;99.90
17956;DHT22;27666;51.498;11.966;2023-02-01T02:11:17;4.40;99.90
17956;DHT22;27666;51.498;11.966;2023-02-01T02:14:05;4.40;99.90
17956;DHT22;27666;51.498;11.966;2023-02-01T02:17:11;4.50;99.90
17956;DHT22;27666;51.498;11.966;2023-02-01T02:24:03;4.60;99.90
17956;DHT22;27666;51.498;11.966;2023-02-01T02:27:18;4.70;99.90
17956;DHT22;27666;51.498;11.966;2023-02-01T02:30:33;4.70;99.90
17956;DHT22;27666;51.498;11.966;2023-02-01T02:36:41;4.70;99.90
17956;DHT22;27666;51.498;11.966;2023-02-01T02:39:38;4.70;99.90
17956;DHT22;27666;51.498;11.966;2023-02-01T02:42:31;4.70;99.90
17956;DHT22;27666;51.498;11.966;2023-02-01T02:45:49;4.80;99.90
17956;DHT22;27666;51.498;11.966;2023-02-01T02:49:02;4.70;99.90
17956;DHT22;27666;51.498;11.966;2023-02-01T02:51:53;4.80;99.90
17956;DHT22;27666;51.498;11.966;2023-02-01T02:54:59;4.80;99.90
17956;DHT22;27666;51.498;11.966;2023-02-01T02:57:48;4.80;99.90
17956;DHT22;27666;51.498;11.966;2023-02-01T03:00:53;4.80;99.90
17956;DHT22;27666;51.498;11.966;2023-02-01T03:04:00;4.80;99.90
17956;DHT22;27666;51.498;11.966;2023-02-01T03:06:54;4.80;99.90
17956;DHT22;27666;51.498;11.966;2023-02-01T03:09:41;5.00;99.90
17956;DHT22;27666;51.498;11.966;2023-02-01T03:12:36;4.90;99.90
17956;DHT22;27666;51.498;11.966;2023-02-01T03:15:45;4.80;99.90
17956;DHT22;27666;51.498;11.966;2023-02-01T03:18:37;4.90;99.90
17956;DHT22;27666;51.498;11.966;2023-02-01T03:21:30;4.90;99.90
17956;DHT22;27666;51.498;11.966;2023-02-01T03:24:22;4.90;99.90
17956;DHT22;27666;51.498;11.966;2023-02-01T03:27:22;4.90;99.90
17956;DHT22;27666;51.498;11.966;2023-02-01T03:30:13;4.90;99.90
17956;DHT22;27666;51.498;11.966;2023-02-01T03:33:06;4.80;99.90
17956;DHT22;27666;51.498;11.966;2023-02-01T03:36:05;4.90;99.90
17956;DHT22;27666;51.498;11.966;2023-02-01T03:39:00;4.90;99.90
17956;DHT22;27666;51.498;11.966;2023-02-01T03:41:51;4.80;99.90
17956;DHT22;27666;51.498;11.966;2023-02-01T03:44:41;4.80;99.90
17956;DHT22;27666;51.498;11.966;2023-02-01T03:47:34;4.80;99.90
17956;DHT22;27666;51.498;11.966;2023-02-01T03:50:23;4.80;99.90
17956;DHT22;27666;51.498;11.966;2023-02-01T03:53:14;4.80;99.90
17956;DHT22;27666;51.498;11.966;2023-02-01T03:56:04;4.80;99.90
17956;DHT22;27666;51.498;11.966;2023-02-01T03:58:52;4.80;99.90
17956;DHT22;27666;51.498;11.966;2023-02-01T04:01:44;4.90;99.90
17956;DHT22;27666;51.498;11.966;2023-02-01T04:04:31;4.90;99.90
17956;DHT22;27666;51.498;11.966;2023-02-01T04:07:17;4.90;99.90
17956;DHT22;27666;51.498;11.966;2023-02-01T04:10:05;5.00;99.90
17956;DHT22;27666;51.498;11.966;2023-02-01T04:12:53;5.00;99.90
17956;DHT22;27666;51.498;11.966;2023-02-01T04:15:40;5.00;99.90
17956;DHT22;27666;51.498;11.966;2023-02-01T04:18:26;4.90;99.90
17956;DHT22;27666;51.498;11.966;2023-02-01T04:21:13;4.90;99.90
17956;DHT22;27666;51.498;11.966;2023-02-01T04:23:59;4.90;99.90
17956;DHT22;27666;51.498;11.966;2023-02-01T04:26:46;5.00;99.90
17956;DHT22;27666;51.498;11.966;2023-02-01T04:29:34;5.00;99.90
17956;DHT22;27666;51.498;11.966;2023-02-01T04:32:20;5.00;99.90
17956;DHT22;27666;51.498;11.966;2023-02-01T04:35:07;5.00;99.90
17956;DHT22;27666;51.498;11.966;2023-02-01T04:37:54;5.00;99.90
17956;DHT22;27666;51.498;11.966;2023-02-01T04:40:41;4.90;99.90
17956;DHT22;27666;51.498;11.966;2023-02-01T04:43:27;5.10;99.90
17956;DHT22;27666;51.498;11.966;2023-02-01T04:46:15;5.00;99.90
17956;DHT22;27666;51.498;11.966;2023-02-01T04:49:01;5.10;99.90
17956;DHT22;27666;51.498;11.966;2023-02-01T04:51:48;5.00;99.90
17956;DHT22;27666;51.498;11.966;2023-02-01T04:54:34;5.10;99.90
17956;DHT22;27666;51.498;11.966;2023-02-01T04:57:21;5.10;99.90
17956;DHT22;27666;51.498;11.966;2023-02-01T05:00:09;5.10;99.90
17956;DHT22;27666;51.498;11.966;2023-02-01T05:02:57;5.00;99.90
17956;DHT22;27666;51.498;11.966;2023-02-01T05:05:43;4.90;99.90
17956;DHT22;27666;51.498;11.966;2023-02-01T05:08:30;4.80;99.90
17956;DHT22;27666;51.498;11.966;2023-02-01T05:11:16;4.70;99.90
17956;DHT22;27666;51.498;11.966;2023-02-01T05:14:17;4.60;99.90
17956;DHT22;27666;51.498;11.966;2023-02-01T05:17:03;4.60;99.90
17956;DHT22;27666;51.498;11.966;2023-02-01T05:19:51;4.60;99.90
17956;DHT22;27666;51.498;11.966;2023-02-01T05:22:37;4.50;99.90
17956;DHT22;27666;51.498;11.966;2023-02-01T05:25:24;4.50;99.90
17956;DHT22;27666;51.498;11.966;2023-02-01T05:28:10;4.40;99.90
17956;DHT22;27666;51.498;11.966;2023-02-01T05:30:57;4.50;99.90
17956;DHT22;27666;51.498;11.966;2023-02-01T05:33:43;4.40;99.90
17956;DHT22;27666;51.498;11.966;2023-02-01T05:36:31;4.40;99.90
17956;DHT22;27666;51.498;11.966;2023-02-01T05:39:18;4.40;99.90
17956;DHT22;27666;51.498;11.966;2023-02-01T05:42:05;4.40;99.90
17956;DHT22;27666;51.498;11.966;2023-02-01T05:44:51;4.40;99.90
17956;DHT22;27666;51.498;11.966;2023-02-01T05:47:37;4.50;99.90
17956;DHT22;27666;51.498;11.966;2023-02-01T05:50:24;4.50;99.90
17956;DHT22;27666;51.498;11.966;2023-02-01T05:53:12;4.40;99.90
17956;DHT22;27666;51.498;11.966;2023-02-01T05:55:59;4.60;99.90
17956;DHT22;27666;51.498;11.966;2023-02-01T05:58:45;4.70;99.90
17956;DHT22;27666;51.498;11.966;2023-02-01T06:01:32;4.70;99.90
17956;DHT22;27666;51.498;11.966;2023-02-01T06:04:19;4.60;99.90
17956;DHT22;27666;51.498;11.966;2023-02-01T06:07:05;4.60;99.90
17956;DHT22;27666;51.498;11.966;2023-02-01T06:09:53;4.80;99.90
17956;DHT22;27666;51.498;11.966;2023-02-01T06:12:40;4.80;99.90
17956;DHT22;27666;51.498;11.966;2023-02-01T06:15:26;4.80;99.90
17956;DHT22;27666;51.498;11.966;2023-02-01T06:18:13;4.70;99.90
17956;DHT22;27666;51.498;11.966;2023-02-01T06:21:01;4.60;99.90
17956;DHT22;27666;51.498;11.966;2023-02-01T06:23:48;4.50;99.90
17956;DHT22;27666;51.498;11.966;2023-02-01T06:26:36;4.40;99.90
17956;DHT22;27666;51.498;11.966;2023-02-01T06:29:24;4.50;99.90
17956;DHT22;27666;51.498;11.966;2023-02-01T06:32:11;4.40;99.90
17956;DHT22;27666;51.498;11.966;2023-02-01T06:34:58;4.40;99.90
17956;DHT22;27666;51.498;11.966;2023-02-01T06:37:45;4.50;99.90
17956;DHT22;27666;51.498;11.966;2023-02-01T06:40:31;4.50;99.90
17956;DHT22;27666;51.498;11.966;2023-02-01T06:43:19;4.70;99.90
17956;DHT22;27666;51.498;11.966;2023-02-01T06:46:08;4.70;99.90
17956;DHT22;27666;51.498;11.966;2023-02-01T06:48:55;4.70;99.90
17956;DHT22;27666;51.498;11.966;2023-02-01T06:51:42;4.70;99.90
17956;DHT22;27666;51.498;11.966;2023-02-01T06:54:29;4.60;99.90
17956;DHT22;27666;51.498;11.966;2023-02-01T06:57:17;4.60;99.90
17956;DHT22;27666;51.498;11.966;2023-02-01T07:00:06;4.60;99.90
17956;DHT22;27666;51.498;11.966;2023-02-01T07:02:52;4.60;99.90
17956;DHT22;27666;51.498;11.966;2023-02-01T07:05:39;4.60;99.90
17956;DHT22;27666;51.498;11.966;2023-02-01T07:08:26;4.70;99.90
17956;DHT22;27666;51.498;11.966;2023-02-01T07:11:14;4.70;99.90
17956;DHT22;27666;51.498;11.966;2023-02-01T07:14:01;4.80;99.90
17956;DHT22;27666;51.498;11.966;2023-02-01T07:16:48;4.90;99.90
17956;DHT22;27666;51.498;11.966;2023-02-01T07:19:36;5.00;99.90
17956;DHT22;27666;51.498;11.966;2023-02-01T07:22:22;4.90;99.90
17956;DHT22;27666;51.498;11.966;2023-02-01T07:25:09;5.00;99.90
17956;DHT22;27666;51.498;11.966;2023-02-01T07:27:55;5.00;99.90
17956;DHT22;27666;51.498;11.966;2023-02-01T07:30:42;5.10;99.90
17956;DHT22;27666;51.498;11.966;2023-02-01T07:33:30;5.10;99.90
17956;DHT22;27666;51.498;11.966;2023-02-01T07:36:17;5.10;99.90
17956;DHT22;27666;51.498;11.966;2023-02-01T07:39:04;5.10;99.90
17956;DHT22;27666;51.498;11.966;2023-02-01T07:41:50;5.30;99.90
17956;DHT22;27666;51.498;11.966;2023-02-01T07:44:37;5.30;99.90
17956;DHT22;27666;51.498;11.966;2023-02-01T07:47:23;5.20;99.90
17956;DHT22;27666;51.498;11.966;2023-02-01T07:50:11;5.30;99.90
17956;DHT22;27666;51.498;11.966;2023-02-01T07:52:59;5.30;99.90
17956;DHT22;27666;51.498;11.966;2023-02-01T07:55:45;5.30;99.90
17956;DHT22;27666;51.498;11.966;2023-02-01T07:58:33;5.30;99.90
17956;DHT22;27666;51.498;11.966;2023-02-01T08:01:21;5.30;99.90
17956;DHT22;27666;51.498;11.966;2023-02-01T08:04:11;5.20;99.90
17956;DHT22;27666;51.498;11.966;2023-02-01T08:06:59;5.20;99.90
17956;DHT22;27666;51.498;11.966;2023-02-01T08:09:46;5.20;99.90
17956;DHT22;27666;51.498;11.966;2023-02-01T08:12:32;5.20;99.90
17956;DHT22;27666;51.498;11.966;2023-02-01T08:15:19;5.30;99.90
17956;DHT22;27666;51.498;11.966;2023-02-01T08:18:05;5.20;99.90
17956;DHT22;27666;51.498;11.966;2023-02-01T08:20:52;5.40;99.90
17956;DHT22;27666;51.498;11.966;2023-02-01T08:23:41;5.40;99.90
17956;DHT22;27666;51.498;11.966;2023-02-01T08:26:28;5.30;99.90
17956;DHT22;27666;51.498;11.966;2023-02-01T08:29:15;5.20;99.90
17956;DHT22;27666;51.498;11.966;2023-02-01T08:32:01;5.20;99.90
17956;DHT22;27666;51.498;11.966;2023-02-01T08:34:48;5.10;99.90
17956;DHT22;27666;51.498;11.966;2023-02-01T08:37:34;5.00;99.90
17956;DHT22;27666;51.498;11.966;2023-02-01T08:40:22;5.00;99.90
17956;DHT22;27666;51.498;11.966;2023-02-01T08:43:09;5.00;99.90
17956;DHT22;27666;51.498;11.966;2023-02-01T08:45:56;4.90;99.90
17956;DHT22;27666;51.498;11.966;2023-02-01T08:48:42;4.70;99.90
17956;DHT22;27666;51.498;11.966;2023-02-01T08:51:29;4.80;99.90
17956;DHT22;27666;51.498;11.966;2023-02-01T08:54:15;4.80;99.90
17956;DHT22;27666;51.498;11.966;2023-02-01T08:57:03;4.70;99.90
17956;DHT22;27666;51.498;11.966;2023-02-01T08:59:50;4.70;99.90
17956;DHT22;27666;51.498;11.966;2023-02-01T09:02:36;4.70;99.90
17956;DHT22;27666;51.498;11.966;2023-02-01T09:05:23;4.70;99.90
17956;DHT22;27666;51.498;11.966;2023-02-01T09:08:19;4.70;99.90
17956;DHT22;27666;51.498;11.966;2023-02-01T09:11:08;4.70;99.90
17956;DHT22;27666;51.498;11.966;2023-02-01T09:13:56;4.80;99.90
17956;DHT22;27666;51.498;11.966;2023-02-01T09:16:43;4.90;99.90
17956;DHT22;27666;51.498;11.966;2023-02-01T09:19:29;4.90;99.90
17956;DHT22;27666;51.498;11.966;2023-02-01T09:22:15;4.90;99.90
17956;DHT22;27666;51.498;11.966;2023-02-01T09:25:03;5.10;99.90
17956;DHT22;27666;51.498;11.966;2023-02-01T09:27:49;5.20;99.90
17956;DHT22;27666;51.498;11.966;2023-02-01T09:30:37;5.40;99.90
17956;DHT22;27666;51.498;11.966;2023-02-01T09:33:23;5.50;99.90
17956;DHT22;27666;51.498;11.966;2023-02-01T09:36:10;5.60;99.90
17956;DHT22;27666;51.498;11.966;2023-02-01T09:38:57;5.70;99.90
17956;DHT22;27666;51.498;11.966;2023-02-01T09:41:51;5.80;99.90
17956;DHT22;27666;51.498;11.966;2023-02-01T09:44:51;5.80;99.90
17956;DHT22;27666;51.498;11.966;2023-02-01T09:47:46;5.80;99.90
17956;DHT22;27666;51.498;11.966;2023-02-01T09:50:37;6.00;99.90
17956;DHT22;27666;51.498;11.966;2023-02-01T09:53:28;6.10;99.90
17956;DHT22;27666;51.498;11.966;2023-02-01T09:56:21;6.20;99.90
17956;DHT22;27666;51.498;11.966;2023-02-01T09:59:17;6.40;99.90
17956;DHT22;27666;51.498;11.966;2023-02-01T10:02:13;6.50;99.90
17956;DHT22;27666;51.498;11.966;2023-02-01T10:05:02;6.70;99.90
17956;DHT22;27666;51.498;11.966;2023-02-01T10:07:57;6.80;99.90
17956;DHT22;27666;51.498;11.966;2023-02-01T10:10:48;6.90;99.90
17956;DHT22;27666;51.498;11.966;2023-02-01T10:13:47;7.10;99.90
17956;DHT22;27666;51.498;11.966;2023-02-01T10:16:41;7.10;99.90
17956;DHT22;27666;51.498;11.966;2023-02-01T10:19:39;7.00;99.90
17956;DHT22;27666;51.498;11.966;2023-02-01T10:22:40;7.10;99.90
17956;DHT22;27666;51.498;11.966;2023-02-01T10:25:53;7.20;99.90
17956;DHT22;27666;51.498;11.966;2023-02-01T10:28:41;7.30;99.90
17956;DHT22;27666;51.498;11.966;2023-02-01T10:31:33;7.60;99.90
17956;DHT22;27666;51.498;11.966;2023-02-01T10:34:23;7.80;99.90
17956;DHT22;27666;51.498;11.966;2023-02-01T10:37:20;8.00;99.90
17956;DHT22;27666;51.498;11.966;2023-02-01T10:40:16;8.30;99.90
17956;DHT22;27666;51.498;11.966;2023-02-01T10:43:04;8.30;99.90
17956;DHT22;27666;51.498;11.966;2023-02-01T10:45:51;8.30;99.90
17956;DHT22;27666;51.498;11.966;2023-02-01T10:48:38;8.50;99.90
17956;DHT22;27666;51.498;11.966;2023-02-01T10:54:17;8.80;99.90
17956;DHT22;27666;51.498;11.966;2023-02-01T10:57:09;8.70;99.90
17956;DHT22;27666;51.498;11.966;2023-02-01T10:59:56;8.50;99.90
17956;DHT22;27666;51.498;11.966;2023-02-01T11:02:42;8.30;99.90
17956;DHT22;27666;51.498;11.966;2023-02-01T11:05:43;8.40;99.90
17956;DHT22;27666;51.498;11.966;2023-02-01T11:08:30;8.10;99.90
17956;DHT22;27666;51.498;11.966;2023-02-01T11:11:17;7.90;99.90
17956;DHT22;27666;51.498;11.966;2023-02-01T11:14:13;7.90;99.90
17956;DHT22;27666;51.498;11.966;2023-02-01T11:17:10;8.00;99.90
17956;DHT22;27666;51.498;11.966;2023-02-01T11:20:05;7.80;99.90
17956;DHT22;27666;51.498;11.966;2023-02-01T11:22:54;7.80;99.90
17956;DHT22;27666;51.498;11.966;2023-02-01T11:25:48;7.90;99.90
17956;DHT22;27666;51.498;11.966;2023-02-01T11:28:39;7.80;99.90
17956;DHT22;27666;51.498;11.966;2023-02-01T11:31:28;7.90;99.90
17956;DHT22;27666;51.498;11.966;2023-02-01T11:34:16;7.80;99.90
17956;DHT22;27666;51.498;11.966;2023-02-01T11:37:09;8.00;99.90
17956;DHT22;27666;51.498;11.966;2023-02-01T11:40:01;7.80;99.90
17956;DHT22;27666;51.498;11.966;2023-02-01T11:42:54;7.70;99.90
17956;DHT22;27666;51.498;11.966;2023-02-01T11:45:41;7.70;99.90
17956;DHT22;27666;51.498;11.966;2023-02-01T11:48:30;7.80;99.90
17956;DHT22;27666;51.498;11.966;2023-02-01T11:51:28;7.80;99.90
17956;DHT22;27666;51.498;11.966;2023-02-01T11:54:28;7.80;99.90
17956;DHT22;27666;51.498;11.966;2023-02-01T12:00:44;8.00;99.90
17956;DHT22;27666;51.498;11.966;2023-02-01T12:03:52;8.10;99.90
17956;DHT22;27666;51.498;11.966;2023-02-01T12:06:50;8.20;99.90
17956;DHT22;27666;51.498;11.966;2023-02-01T12:09:47;8.20;99.90
17956;DHT22;27666;51.498;11.966;2023-02-01T12:12:45;8.30;99.90
17956;DHT22;27666;51.498;11.966;2023-02-01T12:15:44;8.40;99.90
17956;DHT22;27666;51.498;11.966;2023-02-01T12:18:53;8.30;99.90
17956;DHT22;27666;51.498;11.966;2023-02-01T12:21:58;8.40;99.90
17956;DHT22;27666;51.498;11.966;2023-02-01T12:25:14;8.40;99.90
17956;DHT22;27666;51.498;11.966;2023-02-01T12:28:17;8.30;99.90
17956;DHT22;27666;51.498;11.966;2023-02-01T12:31:20;8.30;99.90
17956;DHT22;27666;51.498;11.966;2023-02-01T12:34:37;8.30;99.90
17956;DHT22;27666;51.498;11.966;2023-02-01T12:37:38;8.40;99.90
17956;DHT22;27666;51.498;11.966;2023-02-01T12:40:43;8.50;99.90
17956;DHT22;27666;51.498;11.966;2023-02-01T12:43:37;8.60;99.90
17956;DHT22;27666;51.498;11.966;2023-02-01T12:46:29;8.60;99.90
17956;DHT22;27666;51.498;11.966;2023-02-01T12:49:22;8.60;99.90
17956;DHT22;27666;51.498;11.966;2023-02-01T12:52:14;8.40;99.90
17956;DHT22;27666;51.498;11.966;2023-02-01T12:55:08;8.20;99.90
17956;DHT22;27666;51.498;11.966;2023-02-01T12:58:03;8.20;99.90
17956;DHT22;27666;51.498;11.966;2023-02-01T13:00:54;8.00;99.90
17956;DHT22;27666;51.498;11.966;2023-02-01T13:03:52;8.00;99.90
17956;DHT22;27666;51.498;11.966;2023-02-01T13:06:45;7.90;99.90
17956;DHT22;27666;51.498;11.966;2023-02-01T13:09:39;7.90;99.90
17956;DHT22;27666;51.498;11.966;2023-02-01T13:12:32;7.90;99.90
17956;DHT22;27666;51.498;11.966;2023-02-01T13:15:24;7.80;99.90
17956;DHT22;27666;51.498;11.966;2023-02-01T13:18:17;7.80;99.90
17956;DHT22;27666;51.498;11.966;2023-02-01T13:21:08;7.90;99.90
17956;DHT22;27666;51.498;11.966;2023-02-01T13:23:57;7.80;99.90
17956;DHT22;27666;51.498;11.966;2023-02-01T13:26:46;7.90;99.90
17956;DHT22;27666;51.498;11.966;2023-02-01T13:29:33;7.90;99.90
17956;DHT22;27666;51.498;11.966;2023-02-01T13:32:53;7.80;99.90
17956;DHT22;27666;51.498;11.966;2023-02-01T13:36:19;7.80;99.90
17956;DHT22;27666;51.498;11.966;2023-02-01T13:39:45;7.80;99.90
17956;DHT22;27666;51.498;11.966;2023-02-01T13:42:41;8.00;99.90
17956;DHT22;27666;51.498;11.966;2023-02-01T13:45:30;8.10;99.90
17956;DHT22;27666;51.498;11.966;2023-02-01T13:48:22;8.10;99.90
17956;DHT22;27666;51.498;11.966;2023-02-01T13:51:12;8.20;99.90
17956;DHT22;27666;51.498;11.966;2023-02-01T13:53:59;8.30;99.90
17956;DHT22;27666;51.498;11.966;2023-02-01T13:56:47;8.30;99.90
17956;DHT22;27666;51.498;11.966;2023-02-01T13:59:49;8.30;99.90
17956;DHT22;27666;51.498;11.966;2023-02-01T14:06:05;8.50;99.90
17956;DHT22;27666;51.498;11.966;2023-02-01T14:09:21;8.50;99.90
17956;DHT22;27666;51.498;11.966;2023-02-01T14:12:44;8.50;99.90
17956;DHT22;27666;51.498;11.966;2023-02-01T14:15:31;8.50;99.90
17956;DHT22;27666;51.498;11.966;2023-02-01T14:18:49;8.60;99.90
17956;DHT22;27666;51.498;11.966;2023-02-01T14:21:47;8.50;99.90
17956;DHT22;27666;51.498;11.966;2023-02-01T14:24:34;8.50;99.90
17956;DHT22;27666;51.498;11.966;2023-02-01T14:27:24;8.60;99.90
17956;DHT22;27666;51.498;11.966;2023-02-01T14:30:15;8.60;99.90
17956;DHT22;27666;51.498;11.966;2023-02-01T14:33:12;8.60;99.90
17956;DHT22;27666;51.498;11.966;2023-02-01T14:36:07;8.60;99.90
17956;DHT22;27666;51.498;11.966;2023-02-01T14:38:54;8.50;99.90
17956;DHT22;27666;51.498;11.966;2023-02-01T14:41:42;8.40;99.90
17956;DHT22;27666;51.498;11.966;2023-02-01T14:44:33;8.30;99.90
17956;DHT22;27666;51.498;11.966;2023-02-01T14:47:35;8.20;99.90
17956;DHT22;27666;51.498;11.966;2023-02-01T14:50:31;8.10;99.90
17956;DHT22;27666;51.498;11.966;2023-02-01T14:53:23;7.80;99.90
17956;DHT22;27666;51.498;11.966;2023-02-01T14:56:15;7.70;99.90
17956;DHT22;27666;51.498;11.966;2023-02-01T14:59:08;7.50;99.90
17956;DHT22;27666;51.498;11.966;2023-02-01T15:01:58;7.50;99.90
17956;DHT22;27666;51.498;11.966;2023-02-01T15:04:46;7.40;99.90
17956;DHT22;27666;51.498;11.966;2023-02-01T15:07:38;7.30;99.90
17956;DHT22;27666;51.498;11.966;2023-02-01T15:10:25;7.20;99.90
17956;DHT22;27666;51.498;11.966;2023-02-01T15:13:20;7.20;99.90
17956;DHT22;27666;51.498;11.966;2023-02-01T15:16:11;7.20;99.90
17956;DHT22;27666;51.498;11.966;2023-02-01T15:19:09;7.10;99.90
17956;DHT22;27666;51.498;11.966;2023-02-01T15:21:58;7.00;99.90
17956;DHT22;27666;51.498;11.966;2023-02-01T15:24:52;6.90;99.90
17956;DHT22;27666;51.498;11.966;2023-02-01T15:27:39;6.90;99.90
17956;DHT22;27666;51.498;11.966;2023-02-01T15:30:27;6.80;99.90
17956;DHT22;27666;51.498;11.966;2023-02-01T15:33:17;6.70;99.90
17956;DHT22;27666;51.498;11.966;2023-02-01T15:36:09;6.70;99.90
17956;DHT22;27666;51.498;11.966;2023-02-01T15:39:19;6.80;99.90
17956;DHT22;27666;51.498;11.966;2023-02-01T15:42:12;6.70;99.90
17956;DHT22;27666;51.498;11.966;2023-02-01T15:45:04;6.70;99.90
17956;DHT22;27666;51.498;11.966;2023-02-01T15:48:02;6.30;99.90
17956;DHT22;27666;51.498;11.966;2023-02-01T15:50:49;5.10;99.90
17956;DHT22;27666;51.498;11.966;2023-02-01T15:53:36;4.70;99.90
17956;DHT22;27666;51.498;11.966;2023-02-01T15:56:26;4.30;99.90
17956;DHT22;27666;51.498;11.966;2023-02-01T15:59:15;4.10;99.90
17956;DHT22;27666;51.498;11.966;2023-02-01T16:02:02;4.00;99.90
17956;DHT22;27666;51.498;11.966;2023-02-01T16:04:49;3.80;99.90
17956;DHT22;27666;51.498;11.966;2023-02-01T16:07:36;3.60;99.90
17956;DHT22;27666;51.498;11.966;2023-02-01T16:10:27;3.70;99.90
17956;DHT22;27666;51.498;11.966;2023-02-01T16:13:17;3.60;99.90
17956;DHT22;27666;51.498;11.966;2023-02-01T16:16:03;3.80;99.90
17956;DHT22;27666;51.498;11.966;2023-02-01T16:18:53;3.90;99.90
17956;DHT22;27666;51.498;11.966;2023-02-01T16:21:40;3.80;99.90
17956;DHT22;27666;51.498;11.966;2023-02-01T16:24:26;3.70;99.90
17956;DHT22;27666;51.498;11.966;2023-02-01T16:27:13;3.60;99.90
17956;DHT22;27666;51.498;11.966;2023-02-01T16:30:01;3.70;99.90
17956;DHT22;27666;51.498;11.966;2023-02-01T16:32:47;3.60;99.90
17956;DHT22;27666;51.498;11.966;2023-02-01T16:35:36;3.70;99.90
17956;DHT22;27666;51.498;11.966;2023-02-01T16:38:23;3.90;99.90
17956;DHT22;27666;51.498;11.966;2023-02-01T16:41:12;3.90;99.90
17956;DHT22;27666;51.498;11.966;2023-02-01T16:43:59;4.00;99.90
17956;DHT22;27666;51.498;11.966;2023-02-01T16:46:48;4.00;99.90
17956;DHT22;27666;51.498;11.966;2023-02-01T16:49:34;4.00;99.90
17956;DHT22;27666;51.498;11.966;2023-02-01T16:52:24;3.90;99.90
17956;DHT22;27666;51.498;11.966;2023-02-01T16:55:12;3.90;99.90
17956;DHT22;27666;51.498;11.966;2023-02-01T16:57:59;3.80;99.90
17956;DHT22;27666;51.498;11.966;2023-02-01T17:00:47;3.90;99.90
17956;DHT22;27666;51.498;11.966;2023-02-01T17:03:35;3.90;99.90
17956;DHT22;27666;51.498;11.966;2023-02-01T17:06:24;3.90;99.90
17956;DHT22;27666;51.498;11.966;2023-02-01T17:09:11;3.80;99.90
17956;DHT22;27666;51.498;11.966;2023-02-01T17:11:58;3.80;99.90
17956;DHT22;27666;51.498;11.966;2023-02-01T17:14:44;3.80;99.90
17956;DHT22;27666;51.498;11.966;2023-02-01T17:17:33;3.80;99.90
17956;DHT22;27666;51.498;11.966;2023-02-01T17:20:27;3.80;99.90
17956;DHT22;27666;51.498;11.966;2023-02-01T17:23:16;3.80;99.90
17956;DHT22;27666;51.498;11.966;2023-02-01T17:26:03;3.80;99.90
17956;DHT22;27666;51.498;11.966;2023-02-01T17:28:50;3.80;99.90
17956;DHT22;27666;51.498;11.966;2023-02-01T17:31:38;3.80;99.90
17956;DHT22;27666;51.498;11.966;2023-02-01T17:34:25;3.80;99.90
17956;DHT22;27666;51.498;11.966;2023-02-01T17:37:21;3.80;99.90
17956;DHT22;27666;51.498;11.966;2023-02-01T17:40:10;3.70;99.90
17956;DHT22;27666;51.498;11.966;2023-02-01T17:42:57;3.60;99.90
17956;DHT22;27666;51.498;11.966;2023-02-01T17:45:46;3.60;99.90
17956;DHT22;27666;51.498;11.966;2023-02-01T17:48:37;3.40;99.90
17956;DHT22;27666;51.498;11.966;2023-02-01T17:51:25;3.50;99.90
17956;DHT22;27666;51.498;11.966;2023-02-01T17:54:14;3.50;99.90
17956;DHT22;27666;51.498;11.966;2023-02-01T17:57:01;3.40;99.90
17956;DHT22;27666;51.498;11.966;2023-02-01T17:59:48;3.40;99.90
17956;DHT22;27666;51.498;11.966;2023-02-01T18:02:34;3.30;99.90
17956;DHT22;27666;51.498;11.966;2023-02-01T18:05:23;3.30;99.90
17956;DHT22;27666;51.498;11.966;2023-02-01T18:08:12;3.30;99.90
17956;DHT22;27666;51.498;11.966;2023-02-01T18:11:00;3.30;99.90
17956;DHT22;27666;51.498;11.966;2023-02-01T18:13:48;3.30;99.90
17956;DHT22;27666;51.498;11.966;2023-02-01T18:16:34;3.30;99.90